Allen, Indiana
Current Conditions -  °F | °C
As of 12:55 PM on Friday 21 Nov 2014 (Local Time) from KGWB Reporting Station
Clear Clear  
Wind Chill: 25°   Ceiling: Unl
Heat Index: 30°   Visibility: 10mi
Dew Point: 12°   Wind: 5mph
Humidity: 47%   Direction: 210°SSW
Pressure: 30.48"   Gusts: NA
Location:  41.4608°N, 85.2531°W
Report Text: KGWB 211755Z AUTO 21004KT 10SM CLR M01/M11 A3048 RMK AO2
Loading
Personal Weather Stations






























Interactive Weather Map New forecast layout! Learn more

10-Day Weather Forecast

Advertisements
Track Severe Weather on mobile